首页
METAR-TAF:

METAR-TAF

机场 :

桂林, 中华人民共和国

桂林兩江國際機場

纬度: 25-20N, 经度: 110-18E, 海拔: 166米

当前天气观测

该预报发布于11分钟前的00:00 UTC
静风
温度 12°C
湿度 94%
气压 1024 hPa
能見度: 7000
少量云层高于3600英尺
阴天层高于6600英尺

METAR: ZGKL 250000Z 00000MPS 7000 FEW036 OVC066 12/11 Q1024 NOSIG

时间: 08:11 (00:11 UTC)

预报

该预报发布于4小时和58分钟前的19:13 UTC
预报有效从25日的 00点(UTC)到 25日的 24点(UTC)
风速6节,风向东北
能見度: 8000
散云层高于2300英尺
阴天层高于4000英尺

TAF: ZGKL 241913Z 2500/2524 05003MPS 8000 SCT023 OVC040 TX15/2507Z TN10/2523Z

超过4000个机场的气象观测和天气预报(METAR&TAF报告)。

可查询的气象台以黄色和红色小点在地图上表示。

将鼠标移到小点上方,可查看气象台名称。

然后点击查看天气观测和预报。

如需切换地图:点击带黑十字的绿色按钮放大地图;点击带横线的绿色按钮缩小地图;或者点击绿色箭头查看邻近地区的地图。


METAR-TAF: